Time;durP1;ratioP1;P1;durP2;ratioP2;P2;SDS_P1;SDS_P2;PMS_P1;PMS_P2;Temp;Humidity;BMP_temperature;BMP_pressure;BME280_temperature;BME280_humidity;BME280_pressure;Samples;Min_cycle;Max_cycle;Signal;HPM_P1;HPM_P2
2021/07/20 00:00:00;;;;;;;1999.90;999.90;;;17.50;99.90;;;;;;5101068;28;20396;-73
2021/07/20 00:02:46;;;;;;;1999.90;999.90;;;17.40;99.90;;;;;;5099728;28;20410;-72
2021/07/20 00:05:15;;;;;;;1999.90;999.90;;;17.40;99.90;;;;;;5099932;28;20264;-73
2021/07/20 00:07:40;;;;;;;1999.90;999.90;;;17.30;99.90;;;;;;5098793;28;20405;-73
2021/07/20 00:10:15;;;;;;;1999.90;999.90;;;17.30;99.90;;;;;;5098852;28;20400;-73
2021/07/20 00:12:41;;;;;;;1999.90;999.90;;;17.20;99.90;;;;;;5100821;28;20175;-73
2021/07/20 00:15:11;;;;;;;1999.90;999.90;;;17.20;99.90;;;;;;5098826;28;20453;-73
2021/07/20 00:17:39;;;;;;;1999.90;999.90;;;17.30;99.90;;;;;;5100297;28;20511;-73
2021/07/20 00:20:06;;;;;;;1999.90;999.90;;;17.20;99.90;;;;;;5099902;28;20453;-71
2021/07/20 00:22:32;;;;;;;1999.90;999.90;;;17.10;99.90;;;;;;5100901;28;20397;-72
2021/07/20 00:24:58;;;;;;;1999.90;999.90;;;17.00;99.90;;;;;;5099985;28;20427;-72
2021/07/20 00:27:24;;;;;;;1999.90;999.90;;;16.80;99.90;;;;;;5099915;28;20399;-72
2021/07/20 00:29:49;;;;;;;1999.90;999.90;;;16.70;99.90;;;;;;5099567;28;20402;-72
2021/07/20 00:32:15;;;;;;;1999.90;999.90;;;16.60;99.90;;;;;;5100829;28;20171;-73
2021/07/20 00:34:40;;;;;;;1999.90;999.90;;;16.50;99.90;;;;;;5099440;28;20210;-75
2021/07/20 00:37:06;;;;;;;1999.90;999.90;;;16.30;99.90;;;;;;5098387;28;20178;-75
2021/07/20 00:39:33;;;;;;;1999.90;999.90;;;16.30;99.90;;;;;;5098266;28;20172;-75
2021/07/20 00:41:59;;;;;;;1999.90;999.90;;;16.30;99.90;;;;;;5099527;28;20432;-75
2021/07/20 00:44:24;;;;;;;1999.90;999.90;;;16.20;99.90;;;;;;5099767;28;20461;-75
2021/07/20 00:46:50;;;;;;;1999.90;999.90;;;16.30;99.90;;;;;;5099174;28;20402;-75
2021/07/20 00:49:16;;;;;;;1999.90;999.90;;;16.20;99.90;;;;;;5099680;28;20173;-75
2021/07/20 00:51:42;;;;;;;1999.90;999.90;;;16.30;99.90;;;;;;5100145;28;20424;-76
2021/07/20 00:54:09;;;;;;;1999.90;999.90;;;16.20;99.90;;;;;;5099814;28;20197;-74
2021/07/20 00:56:35;;;;;;;1999.90;999.90;;;16.20;99.90;;;;;;5099128;28;20428;-75
2021/07/20 00:59:01;;;;;;;1999.90;999.90;;;16.20;99.90;;;;;;5099852;28;20734;-75
2021/07/20 01:01:27;;;;;;;1999.90;999.90;;;16.20;99.90;;;;;;5100456;28;20401;-75
2021/07/20 01:03:53;;;;;;;1999.90;999.90;;;16.20;99.90;;;;;;5099549;28;20492;-75
2021/07/20 01:06:20;;;;;;;1999.90;999.90;;;16.20;99.90;;;;;;5099793;28;20461;-75
2021/07/20 01:08:48;;;;;;;1999.90;999.90;;;16.20;99.90;;;;;;5098848;28;20415;-75
2021/07/20 01:11:16;;;;;;;1999.90;999.90;;;16.10;99.90;;;;;;5098904;28;20398;-75
2021/07/20 01:13:43;;;;;;;1999.90;999.90;;;16.00;99.90;;;;;;5098684;28;20595;-76
2021/07/20 01:16:09;;;;;;;1999.90;999.90;;;16.00;99.90;;;;;;5098464;28;20421;-75
2021/07/20 01:18:37;;;;;;;1999.90;999.90;;;15.90;99.90;;;;;;5099052;28;20397;-75
2021/07/20 01:21:03;;;;;;;1999.90;999.90;;;15.90;99.90;;;;;;5099099;28;20414;-75
2021/07/20 01:23:34;;;;;;;1999.90;999.90;;;15.90;99.90;;;;;;5098102;28;20446;-74
2021/07/20 01:26:00;;;;;;;1999.90;999.90;;;15.80;99.90;;;;;;5098229;28;20487;-76
2021/07/20 01:28:26;;;;;;;1999.90;999.90;;;15.90;99.90;;;;;;5098732;28;20435;-75
2021/07/20 01:30:56;;;;;;;1999.90;999.90;;;15.90;99.90;;;;;;5098235;28;20249;-76
2021/07/20 01:33:24;;;;;;;1999.90;999.90;;;15.90;99.90;;;;;;5097848;28;20439;-76
2021/07/20 01:35:51;;;;;;;1999.90;999.90;;;15.90;99.90;;;;;;5097659;28;20453;-76
2021/07/20 01:38:19;;;;;;;1999.90;999.90;;;15.90;99.90;;;;;;5097484;28;20439;-75
2021/07/20 01:40:47;;;;;;;1999.90;999.90;;;15.90;99.90;;;;;;5096957;28;20441;-74
2021/07/20 01:43:13;;;;;;;1999.90;999.90;;;15.90;99.90;;;;;;5097142;28;20392;-75
2021/07/20 01:45:40;;;;;;;1999.90;999.90;;;15.90;99.90;;;;;;5097520;28;20471;-74
2021/07/20 01:48:06;;;;;;;1999.90;999.90;;;15.90;99.90;;;;;;5098038;28;20432;-75
2021/07/20 01:50:35;;;;;;;1999.90;999.90;;;15.80;99.90;;;;;;5097002;28;20897;-73
2021/07/20 01:53:02;;;;;;;1999.90;999.90;;;15.80;99.90;;;;;;5097163;28;20416;-73
2021/07/20 01:55:28;;;;;;;1999.90;999.90;;;15.80;99.90;;;;;;5097684;28;20474;-73
2021/07/20 01:57:55;;;;;;;1999.90;999.90;;;15.70;99.90;;;;;;5096443;28;20434;-73
2021/07/20 02:00:21;;;;;;;1999.90;999.90;;;15.70;99.90;;;;;;5097014;28;20177;-73
2021/07/20 02:08:40;;;;;;;1999.90;999.90;;;15.70;99.90;;;;;;5097026;28;20434;-73
2021/07/20 02:11:17;;;;;;;1999.90;999.90;;;15.60;99.90;;;;;;5097545;28;20450;-73
2021/07/20 02:13:51;;;;;;;1999.90;999.90;;;15.60;99.90;;;;;;5097935;28;20443;-69
2021/07/20 02:16:17;;;;;;;1999.90;999.90;;;15.60;99.90;;;;;;5098975;28;20492;-73
2021/07/20 02:18:46;;;;;;;1999.90;999.90;;;15.50;99.90;;;;;;5098600;28;20404;-73
2021/07/20 02:21:13;;;;;;;1999.90;999.90;;;15.40;99.90;;;;;;5098324;28;20412;-73
2021/07/20 02:23:40;;;;;;;1999.90;999.90;;;15.30;99.90;;;;;;5097420;28;20429;-70
2021/07/20 02:26:08;;;;;;;1999.90;999.90;;;15.20;99.90;;;;;;5097786;28;20416;-73
2021/07/20 02:28:36;;;;;;;1999.90;999.90;;;15.10;99.90;;;;;;5097368;28;20408;-72
2021/07/20 02:31:04;;;;;;;1999.90;999.90;;;15.10;99.90;;;;;;5097537;28;20410;-73
2021/07/20 02:33:30;;;;;;;1999.90;999.90;;;15.10;99.90;;;;;;5097888;28;20456;-73
2021/07/20 02:35:58;;;;;;;1999.90;999.90;;;15.10;99.90;;;;;;5096423;28;20964;-73
2021/07/20 02:38:24;;;;;;;1999.90;999.90;;;15.00;99.90;;;;;;5097314;28;20177;-73
2021/07/20 02:40:51;;;;;;;1999.90;999.90;;;15.00;99.90;;;;;;5079888;28;20493;-73
2021/07/20 02:43:19;;;;;;;1999.90;999.90;;;15.00;99.90;;;;;;5097516;28;20970;-73
2021/07/20 02:45:46;;;;;;;1999.90;999.90;;;15.00;99.90;;;;;;5096871;28;20433;-73
2021/07/20 02:48:12;;;;;;;1999.90;999.90;;;14.90;99.90;;;;;;5096728;28;20475;-73
2021/07/20 02:50:39;;;;;;;1999.90;999.90;;;14.80;99.90;;;;;;5096588;28;20404;-73
2021/07/20 02:53:06;;;;;;;1999.90;999.90;;;14.80;99.90;;;;;;5097298;28;20950;-73
2021/07/20 02:55:34;;;;;;;1999.90;999.90;;;14.80;99.90;;;;;;5097609;28;20918;-73
2021/07/20 02:58:01;;;;;;;1999.90;999.90;;;14.80;99.90;;;;;;5097434;28;20409;-73
2021/07/20 03:00:28;;;;;;;1999.90;999.90;;;14.80;99.90;;;;;;5096762;28;20464;-72
2021/07/20 03:02:54;;;;;;;1999.90;999.90;;;14.80;99.90;;;;;;5096926;28;20504;-72
2021/07/20 03:05:20;;;;;;;1999.90;999.90;;;14.80;99.90;;;;;;5097077;28;20419;-73
2021/07/20 03:07:51;;;;;;;1999.90;999.90;;;14.90;99.90;;;;;;5097450;28;20427;-73
2021/07/20 03:10:19;;;;;;;1999.90;999.90;;;15.00;99.90;;;;;;5097234;28;20393;-73
2021/07/20 03:12:47;;;;;;;1999.90;999.90;;;14.90;99.90;;;;;;5097896;28;20504;-73
2021/07/20 03:15:14;;;;;;;1999.90;999.90;;;14.90;99.90;;;;;;5096731;28;20458;-73
2021/07/20 03:17:41;;;;;;;1999.90;999.90;;;14.80;99.90;;;;;;5095055;28;20771;-72
2021/07/20 03:20:09;;;;;;;1999.90;999.90;;;14.80;99.90;;;;;;5093881;28;20397;-73
2021/07/20 03:22:37;;;;;;;1999.90;999.90;;;14.70;99.90;;;;;;5095037;28;20408;-73
2021/07/20 03:25:06;;;;;;;1999.90;999.90;;;14.70;99.90;;;;;;5095730;28;20417;-73
2021/07/20 03:27:35;;;;;;;1999.90;999.90;;;14.60;99.90;;;;;;5095895;28;20400;-73
2021/07/20 03:30:01;;;;;;;1999.90;999.90;;;14.50;99.90;;;;;;5096468;28;20908;-75
2021/07/20 03:32:28;;;;;;;1999.90;999.90;;;14.50;99.90;;;;;;5096295;28;20411;-75
2021/07/20 03:34:55;;;;;;;1999.90;999.90;;;14.50;99.90;;;;;;5134797;22;20485;-68
2021/07/20 03:37:22;;;;;;;1999.90;999.90;;;14.50;99.90;;;;;;5091577;28;20413;-68
2021/07/20 03:39:51;;;;;;;1999.90;999.90;;;14.50;99.90;;;;;;5091904;28;20390;-68
2021/07/20 03:42:19;;;;;;;1999.90;999.90;;;14.50;99.90;;;;;;5091896;28;20885;-68
2021/07/20 03:44:44;;;;;;;1999.90;999.90;;;14.50;99.90;;;;;;5091438;28;20389;-68
2021/07/20 03:47:13;;;;;;;1999.90;999.90;;;14.40;99.90;;;;;;5091853;28;20813;-69
2021/07/20 03:49:39;;;;;;;1999.90;999.90;;;14.40;99.90;;;;;;5091763;28;20197;-68
2021/07/20 03:52:05;;;;;;;1999.90;999.90;;;14.40;99.90;;;;;;5091658;28;20428;-68
2021/07/20 03:54:32;;;;;;;1999.90;999.90;;;14.40;99.90;;;;;;5091348;28;20679;-68
2021/07/20 03:56:59;;;;;;;1999.90;999.90;;;14.30;99.90;;;;;;5091674;28;20507;-68
2021/07/20 03:59:28;;;;;;;1999.90;999.90;;;14.20;99.90;;;;;;5091672;28;20425;-67
2021/07/20 04:01:58;;;;;;;1999.90;999.90;;;14.10;99.90;;;;;;5091721;28;20405;-68
2021/07/20 04:04:26;;;;;;;1999.90;999.90;;;14.10;99.90;;;;;;5091380;28;20487;-68
2021/07/20 04:06:53;;;;;;;1999.90;999.90;;;14.00;99.90;;;;;;5091457;28;20515;-68
2021/07/20 04:09:20;;;;;;;1999.90;999.90;;;13.90;99.90;;;;;;5091633;28;20403;-68
2021/07/20 04:11:46;;;;;;;1999.90;999.90;;;13.90;99.90;;;;;;5091770;28;20397;-68
2021/07/20 04:14:12;;;;;;;1999.90;999.90;;;13.80;99.90;;;;;;5094950;28;21020;-68
2021/07/20 04:16:40;;;;;;;1999.90;999.90;;;13.70;99.90;;;;;;5095206;28;20432;-68
2021/07/20 04:19:05;;;;;;;1999.90;999.90;;;13.70;99.90;;;;;;5095198;28;20452;-68
2021/07/20 04:21:32;;;;;;;1999.90;999.90;;;13.60;99.90;;;;;;5095066;28;20973;-68
2021/07/20 04:23:58;;;;;;;1999.90;999.90;;;13.60;99.90;;;;;;5094855;28;20534;-68
2021/07/20 04:26:25;;;;;;;1999.90;999.90;;;13.70;99.90;;;;;;5095024;28;20429;-68
2021/07/20 04:28:51;;;;;;;1999.90;999.90;;;13.80;99.90;;;;;;5095067;28;20406;-68
2021/07/20 04:31:20;;;;;;;1999.90;999.90;;;13.90;99.90;;;;;;5094997;28;20393;-68
2021/07/20 04:33:49;;;;;;;1999.90;999.90;;;14.10;99.90;;;;;;5094551;28;20488;-68
2021/07/20 04:36:16;;;;;;;1999.90;999.90;;;14.20;99.90;;;;;;5094631;28;20444;-68
2021/07/20 04:38:42;;;;;;;1999.90;999.90;;;14.30;99.90;;;;;;5094994;28;20780;-68
2021/07/20 04:41:09;;;;;;;1999.90;999.90;;;14.30;99.90;;;;;;5094940;28;20474;-68
2021/07/20 04:43:36;;;;;;;1999.90;999.90;;;14.30;99.90;;;;;;5094744;28;20412;-68
2021/07/20 04:46:02;;;;;;;1999.90;999.90;;;14.40;99.90;;;;;;5094348;28;20463;-68
2021/07/20 04:48:28;;;;;;;1999.90;999.90;;;14.50;99.90;;;;;;5094666;28;20408;-68
2021/07/20 04:50:56;;;;;;;1999.90;999.90;;;14.50;99.90;;;;;;5094564;28;20932;-68
2021/07/20 04:53:22;;;;;;;1999.90;999.90;;;14.60;99.90;;;;;;5094641;28;20221;-68
2021/07/20 04:55:50;;;;;;;1999.90;999.90;;;14.60;99.90;;;;;;5094119;28;20422;-69
2021/07/20 04:58:17;;;;;;;1999.90;999.90;;;14.50;99.90;;;;;;5094485;28;20895;-68
2021/07/20 05:00:44;;;;;;;1999.90;999.90;;;14.50;99.90;;;;;;5094373;28;20396;-68
2021/07/20 05:03:12;;;;;;;1999.90;999.90;;;14.50;99.90;;;;;;5094376;28;20409;-68
2021/07/20 05:05:39;;;;;;;1999.90;999.90;;;14.50;99.90;;;;;;5093939;28;20414;-68
2021/07/20 05:08:12;;;;;;;1999.90;999.90;;;14.50;99.90;;;;;;5094239;28;20492;-68
2021/07/20 05:10:39;;;;;;;1999.90;999.90;;;14.40;99.90;;;;;;5094216;28;20476;-69
2021/07/20 05:13:08;;;;;;;1999.90;999.90;;;14.40;99.90;;;;;;5094136;28;20400;-68
2021/07/20 05:15:35;;;;;;;1999.90;999.90;;;14.50;99.90;;;;;;5093795;28;20416;-68
2021/07/20 05:18:02;;;;;;;1999.90;999.90;;;14.50;99.90;;;;;;5094081;28;20411;-69
2021/07/20 05:20:28;;;;;;;1999.90;999.90;;;14.40;99.90;;;;;;5094063;28;20403;-68
2021/07/20 05:22:55;;;;;;;1999.90;999.90;;;14.40;99.90;;;;;;5093991;28;20406;-69
2021/07/20 05:25:21;;;;;;;1999.90;999.90;;;14.40;99.90;;;;;;5093037;28;20424;-69
2021/07/20 05:27:53;;;;;;;1999.90;999.90;;;14.40;99.90;;;;;;5094026;28;20898;-69
2021/07/20 05:30:19;;;;;;;1999.90;999.90;;;14.40;99.90;;;;;;5094032;28;20478;-69
2021/07/20 05:32:46;;;;;;;1999.90;999.90;;;14.50;99.90;;;;;;5093946;28;20428;-68
2021/07/20 05:35:14;;;;;;;1999.90;999.90;;;14.60;99.90;;;;;;5093364;28;20846;-68
2021/07/20 05:37:41;;;;;;;1999.90;999.90;;;14.60;99.90;;;;;;5093759;28;20399;-68
2021/07/20 05:40:12;;;;;;;1999.90;999.90;;;14.60;99.90;;;;;;5093655;28;20403;-68
2021/07/20 05:42:39;;;;;;;1999.90;999.90;;;14.50;99.90;;;;;;5093581;28;20400;-68
2021/07/20 05:45:09;;;;;;;1999.90;999.90;;;14.50;99.90;;;;;;5093240;28;20428;-68
2021/07/20 05:47:36;;;;;;;1999.90;999.90;;;14.60;99.90;;;;;;5093470;28;20404;-68
2021/07/20 05:50:03;;;;;;;1999.90;999.90;;;14.60;99.90;;;;;;5093448;28;20433;-68
2021/07/20 05:52:30;;;;;;;1999.90;999.90;;;14.60;99.90;;;;;;5093462;28;20405;-68
2021/07/20 05:54:57;;;;;;;1999.90;999.90;;;14.70;99.90;;;;;;5092836;28;20440;-68
2021/07/20 05:57:25;;;;;;;1999.90;999.90;;;14.70;99.90;;;;;;5093498;28;20397;-69
2021/07/20 05:59:52;;;;;;;1999.90;999.90;;;14.80;99.90;;;;;;5093270;28;20762;-68
2021/07/20 06:02:20;;;;;;;1999.90;999.90;;;14.90;99.90;;;;;;5093177;28;20410;-68
2021/07/20 06:04:46;;;;;;;1999.90;999.90;;;15.00;99.90;;;;;;5092793;28;20451;-69
2021/07/20 06:07:13;;;;;;;1999.90;999.90;;;15.10;99.90;;;;;;5093200;28;20407;-69
2021/07/20 06:09:44;;;;;;;1999.90;999.90;;;15.20;99.90;;;;;;5093059;28;20415;-68
2021/07/20 06:12:12;;;;;;;1999.90;999.90;;;15.30;99.90;;;;;;5093142;28;20400;-68
2021/07/20 06:14:39;;;;;;;1999.90;999.90;;;15.20;99.90;;;;;;5092842;28;20819;-68
2021/07/20 06:17:05;;;;;;;1999.90;999.90;;;15.30;99.90;;;;;;5092791;28;20413;-68
2021/07/20 06:19:32;;;;;;;1999.90;999.90;;;15.40;99.90;;;;;;5092921;28;20401;-68
2021/07/20 06:22:01;;;;;;;1999.90;999.90;;;15.50;99.90;;;;;;5092811;28;20482;-68
2021/07/20 06:24:28;;;;;;;1999.90;999.90;;;15.50;99.90;;;;;;5092564;28;20492;-68
2021/07/20 06:26:56;;;;;;;1999.90;999.90;;;15.60;99.90;;;;;;5092735;28;20906;-68
2021/07/20 06:29:23;;;;;;;1999.90;999.90;;;15.70;99.90;;;;;;5092763;28;20764;-68
2021/07/20 06:31:49;;;;;;;1999.90;999.90;;;15.70;99.90;;;;;;5092722;28;20781;-68
2021/07/20 06:34:15;;;;;;;1999.90;999.90;;;15.80;99.90;;;;;;5092278;28;20441;-68
2021/07/20 06:36:42;;;;;;;1999.90;999.90;;;15.90;99.90;;;;;;5091469;28;20434;-69
2021/07/20 06:39:08;;;;;;;1999.90;999.90;;;16.10;99.90;;;;;;5092552;28;20431;-68
2021/07/20 06:41:38;;;;;;;1999.90;999.90;;;16.20;99.90;;;;;;5092567;28;20451;-68
2021/07/20 06:44:05;;;;;;;1999.90;999.90;;;16.20;99.90;;;;;;5092251;28;20219;-68
2021/07/20 06:46:31;;;;;;;1999.90;999.90;;;16.40;99.90;;;;;;5092351;28;20451;-69
2021/07/20 06:48:58;;;;;;;1999.90;999.90;;;16.50;99.90;;;;;;5092409;28;20783;-68
2021/07/20 06:51:27;;;;;;;1999.90;999.90;;;16.60;99.90;;;;;;5092496;28;20400;-68
2021/07/20 06:53:53;;;;;;;1999.90;999.90;;;16.80;99.90;;;;;;5092018;28;20448;-68
2021/07/20 06:56:35;;;;;;;1999.90;999.90;;;16.90;99.90;;;;;;5092245;28;20438;-68
2021/07/20 06:59:02;;;;;;;1999.90;999.90;;;17.00;99.90;;;;;;5092321;28;20255;-69
2021/07/20 07:01:31;;;;;;;1999.90;999.90;;;17.00;99.90;;;;;;5092133;28;20411;-68
2021/07/20 07:04:11;;;;;;;1999.90;999.90;;;17.10;99.90;;;;;;5091835;28;20408;-68
2021/07/20 07:06:42;;;;;;;1999.90;999.90;;;17.10;99.90;;;;;;5092478;28;20945;-68
2021/07/20 07:09:09;;;;;;;1999.90;999.90;;;17.10;99.90;;;;;;5092168;28;20403;-68
2021/07/20 07:11:35;;;;;;;1999.90;999.90;;;17.20;99.90;;;;;;5092153;28;20782;-69
2021/07/20 07:14:02;;;;;;;1999.90;999.90;;;17.30;99.90;;;;;;5091652;28;20795;-69
2021/07/20 07:16:29;;;;;;;1999.90;999.90;;;17.30;99.90;;;;;;5092008;28;20924;-68
2021/07/20 07:18:56;;;;;;;1999.90;999.90;;;17.30;99.90;;;;;;5092069;28;20406;-68
2021/07/20 07:21:22;;;;;;;1999.90;999.90;;;17.30;99.90;;;;;;5092230;28;20411;-68
2021/07/20 07:23:50;;;;;;;1999.90;999.90;;;17.40;99.90;;;;;;5091764;28;20401;-68
2021/07/20 07:26:18;;;;;;;1999.90;999.90;;;17.40;99.90;;;;;;5091878;28;20431;-68
2021/07/20 07:28:45;;;;;;;1999.90;999.90;;;17.50;99.90;;;;;;5091919;28;20814;-69
2021/07/20 07:31:12;;;;;;;1999.90;999.90;;;17.60;99.90;;;;;;5091909;28;20950;-68
2021/07/20 07:33:39;;;;;;;1999.90;999.90;;;17.70;99.90;;;;;;5091834;28;20459;-68
2021/07/20 07:36:06;;;;;;;1999.90;999.90;;;17.80;99.90;;;;;;5091526;28;20453;-68
2021/07/20 07:38:33;;;;;;;1999.90;999.90;;;17.90;99.90;;;;;;5091792;28;20894;-69
2021/07/20 07:40:59;;;;;;;1999.90;999.90;;;18.00;99.90;;;;;;5091785;28;20394;-68
2021/07/20 07:43:26;;;;;;;1999.90;999.90;;;18.10;99.90;;;;;;5091556;28;20950;-68
2021/07/20 07:45:55;;;;;;;1999.90;999.90;;;18.20;99.90;;;;;;5091045;28;20791;-69
2021/07/20 07:48:22;;;;;;;1999.90;999.90;;;18.30;99.90;;;;;;5076504;28;20395;-68
2021/07/20 07:50:49;;;;;;;1999.90;999.90;;;18.30;99.90;;;;;;5095753;28;20405;-68
2021/07/20 07:53:15;;;;;;;1999.90;999.90;;;18.40;99.90;;;;;;5095766;28;20400;-68
2021/07/20 07:55:42;;;;;;;1999.90;999.90;;;18.40;99.90;;;;;;5095267;28;20415;-68
2021/07/20 07:58:11;;;;;;;1999.90;999.90;;;18.50;99.90;;;;;;5095839;28;20478;-68
2021/07/20 08:00:39;;;;;;;1999.90;999.90;;;18.60;99.90;;;;;;5095537;28;20498;-69
2021/07/20 08:03:06;;;;;;;1999.90;999.90;;;18.70;99.90;;;;;;5095491;28;20432;-68
2021/07/20 08:05:33;;;;;;;1999.90;999.90;;;18.70;99.90;;;;;;5095249;28;20939;-69
2021/07/20 08:08:00;;;;;;;1999.90;999.90;;;18.70;99.90;;;;;;5095451;28;20767;-69
2021/07/20 08:10:27;;;;;;;1999.90;999.90;;;18.70;99.90;;;;;;5095386;28;20407;-68
2021/07/20 08:12:55;;;;;;;1999.90;999.90;;;18.60;99.90;;;;;;5095316;28;20939;-68
2021/07/20 08:15:20;;;;;;;1999.90;999.90;;;18.60;99.90;;;;;;5095174;28;20457;-69
2021/07/20 08:17:48;;;;;;;1999.90;999.90;;;18.70;99.90;;;;;;5095237;28;20786;-68
2021/07/20 08:20:16;;;;;;;1999.90;999.90;;;18.80;99.90;;;;;;5095743;28;20163;-70
2021/07/20 08:22:42;;;;;;;1999.90;999.90;;;18.80;99.90;;;;;;5101055;28;20408;-71
2021/07/20 08:25:18;;;;;;;1999.90;999.90;;;18.70;99.90;;;;;;5101173;28;20529;-68
2021/07/20 08:27:48;;;;;;;1999.90;999.90;;;18.90;99.90;;;;;;5097787;28;20432;-71
2021/07/20 08:30:15;;;;;;;1999.90;999.90;;;18.90;99.90;;;;;;5098760;28;20402;-71
2021/07/20 08:32:48;;;;;;;1999.90;999.90;;;19.20;99.90;;;;;;5096123;28;20904;-69
2021/07/20 08:35:18;;;;;;;1999.90;999.90;;;19.40;99.90;;;;;;5096038;28;20464;-71
2021/07/20 08:37:45;;;;;;;1999.90;999.90;;;19.50;99.90;;;;;;5095866;28;20415;-70
2021/07/20 08:40:23;;;;;;;1999.90;999.90;;;19.30;99.90;;;;;;5095857;28;20456;-70
2021/07/20 08:43:01;;;;;;;1999.90;999.90;;;19.30;99.90;;;;;;5095691;28;20439;-71
2021/07/20 08:45:32;;;;;;;1999.90;999.90;;;19.50;99.90;;;;;;5094858;28;20442;-71
2021/07/20 08:48:16;;;;;;;1999.90;999.90;;;19.60;99.90;;;;;;5096179;28;20465;-70
2021/07/20 08:50:58;;;;;;;1999.90;999.90;;;19.50;99.90;;;;;;5095978;28;20400;-70
2021/07/20 08:53:48;;;;;;;1999.90;999.90;;;19.40;99.90;;;;;;5096017;28;20834;-68
2021/07/20 08:56:18;;;;;;;1999.90;999.90;;;19.40;99.90;;;;;;5095566;28;20426;-68
2021/07/20 08:58:49;;;;;;;1999.90;999.90;;;19.20;99.90;;;;;;5093528;28;20821;-68
2021/07/20 09:01:23;;;;;;;1999.90;999.90;;;19.20;99.90;;;;;;5091347;28;20402;-68
2021/07/20 09:04:00;;;;;;;1999.90;999.90;;;19.10;99.90;;;;;;5091757;28;20914;-69
2021/07/20 09:06:56;;;;;;;1999.90;999.90;;;19.10;99.90;;;;;;5092380;28;20809;-69
2021/07/20 09:09:27;;;;;;;1999.90;999.90;;;19.40;99.90;;;;;;5077307;28;20540;-69
2021/07/20 09:12:16;;;;;;;1999.90;999.90;;;19.30;99.90;;;;;;5092708;28;20400;-69
2021/07/20 09:14:55;;;;;;;1999.90;999.90;;;19.30;99.90;;;;;;5092380;28;20450;-68
2021/07/20 09:17:46;;;;;;;1999.90;999.90;;;19.60;99.90;;;;;;5091805;28;20406;-68
2021/07/20 09:20:23;;;;;;;1999.90;999.90;;;19.90;99.90;;;;;;5092598;28;20880;-68
2021/07/20 09:23:11;;;;;;;1999.90;999.90;;;19.90;99.90;;;;;;5092368;28;20476;-68
2021/07/20 09:25:52;;;;;;;1999.90;999.90;;;19.70;99.90;;;;;;5091509;28;20409;-68
2021/07/20 09:28:36;;;;;;;1999.90;999.90;;;19.70;99.90;;;;;;5092343;28;20430;-68
2021/07/20 09:31:06;;;;;;;1999.90;999.90;;;20.00;99.90;;;;;;5091817;28;20399;-69
2021/07/20 09:34:05;;;;;;;1999.90;999.90;;;20.40;99.90;;;;;;5092068;28;20524;-68
2021/07/20 09:36:43;;;;;;;1999.90;999.90;;;20.40;99.90;;;;;;5091900;28;20445;-68
2021/07/20 09:39:39;;;;;;;1999.90;999.90;;;20.50;99.90;;;;;;5091695;28;20394;-68
2021/07/20 09:42:39;;;;;;;1999.90;999.90;;;20.50;99.90;;;;;;5084534;28;20458;-68
2021/07/20 09:45:14;;;;;;;1999.90;999.90;;;20.40;99.90;;;;;;5091691;28;20469;-68
2021/07/20 09:47:53;;;;;;;1999.90;999.90;;;20.50;99.90;;;;;;5091440;28;20392;-68
2021/07/20 09:50:19;;;;;;;1999.90;999.90;;;20.80;99.90;;;;;;5091951;28;20393;-69
2021/07/20 09:53:03;;;;;;;1999.90;999.90;;;21.20;99.90;;;;;;5091768;28;20432;-68
2021/07/20 09:55:38;;;;;;;1999.90;999.90;;;21.30;99.90;;;;;;5091291;28;20452;-69
2021/07/20 09:58:11;;;;;;;1999.90;999.90;;;21.30;99.90;;;;;;5091877;28;20886;-68
2021/07/20 10:01:14;;;;;;;1999.90;999.90;;;21.50;99.90;;;;;;5091243;28;20399;-69
2021/07/20 10:04:01;;;;;;;1999.90;999.90;;;21.90;99.90;;;;;;5091584;28;20425;-68
2021/07/20 10:06:59;;;;;;;1999.90;999.90;;;22.10;99.90;;;;;;5091691;28;20416;-69
2021/07/20 10:09:40;;;;;;;1999.90;999.90;;;22.10;99.90;;;;;;5091216;28;20874;-68
2021/07/20 10:12:26;;;;;;;1999.90;999.90;;;21.80;99.90;;;;;;5091505;28;20401;-68
2021/07/20 10:15:05;;;;;;;1999.90;999.90;;;21.50;99.90;;;;;;5091068;28;20960;-69
2021/07/20 10:17:47;;;;;;;1999.90;999.90;;;21.50;99.90;;;;;;5091134;28;20410;-69
2021/07/20 10:20:27;;;;;;;1999.90;999.90;;;21.90;99.90;;;;;;5091415;28;20641;-69
2021/07/20 10:23:06;;;;;;;1999.90;999.90;;;22.20;99.90;;;;;;5090706;28;20397;-69
2021/07/20 10:25:59;;;;;;;1999.90;999.90;;;21.90;99.90;;;;;;5090844;28;20963;-68
2021/07/20 10:28:28;;;;;;;1999.90;999.90;;;21.40;99.90;;;;;;5091208;28;20458;-69
2021/07/20 10:31:11;;;;;;;1999.90;999.90;;;21.40;99.90;;;;;;5090849;28;20935;-69
2021/07/20 10:34:02;;;;;;;1999.90;999.90;;;21.50;99.90;;;;;;5090928;28;20448;-69
2021/07/20 10:36:42;;;;;;;1999.90;999.90;;;21.60;99.90;;;;;;5090694;28;20447;-68
2021/07/20 10:39:11;;;;;;;1999.90;999.90;;;21.90;99.90;;;;;;5090572;28;20408;-68
2021/07/20 10:41:48;;;;;;;1999.90;999.90;;;21.90;99.90;;;;;;5090902;28;20433;-69
2021/07/20 10:44:27;;;;;;;1999.90;999.90;;;21.70;99.90;;;;;;5090532;28;20449;-68
2021/07/20 10:46:56;;;;;;;1999.90;999.90;;;21.60;99.90;;;;;;5090253;28;20427;-68
2021/07/20 10:49:42;;;;;;;1999.90;999.90;;;21.70;99.90;;;;;;5090806;28;20405;-69
2021/07/20 10:52:15;;;;;;;1999.90;999.90;;;22.10;99.90;;;;;;5090211;28;20407;-68
2021/07/20 10:54:48;;;;;;;1999.90;999.90;;;22.40;99.90;;;;;;5090911;28;20445;-68
2021/07/20 10:57:20;;;;;;;1999.90;999.90;;;22.90;99.90;;;;;;5090545;28;20394;-69
2021/07/20 11:00:04;;;;;;;1999.90;999.90;;;23.40;99.90;;;;;;5090402;28;20970;-69
2021/07/20 11:02:52;;;;;;;1999.90;999.90;;;23.70;99.90;;;;;;5090562;28;20394;-69
2021/07/20 11:05:18;;;;;;;1999.90;999.90;;;23.80;99.90;;;;;;5090305;28;20418;-69
2021/07/20 11:07:48;;;;;;;1999.90;999.90;;;23.60;99.90;;;;;;5090090;28;20395;-69
2021/07/20 11:10:13;;;;;;;1999.90;999.90;;;23.50;99.90;;;;;;5090518;28;20377;-69
2021/07/20 11:12:42;;;;;;;1999.90;999.90;;;23.20;99.90;;;;;;5090383;28;20497;-69
2021/07/20 11:15:08;;;;;;;1999.90;999.90;;;22.40;99.90;;;;;;5089681;28;20199;-68
2021/07/20 11:17:38;;;;;;;1999.90;999.90;;;22.50;99.90;;;;;;5090339;28;20459;-69
2021/07/20 11:20:08;;;;;;;1999.90;999.90;;;22.50;99.90;;;;;;5090514;28;20830;-69
2021/07/20 11:22:36;;;;;;;1999.90;999.90;;;22.80;99.90;;;;;;5093531;28;20402;-68
2021/07/20 11:25:03;;;;;;;1999.90;999.90;;;23.00;99.90;;;;;;5096788;28;20417;-68
2021/07/20 11:27:29;;;;;;;1999.90;999.90;;;23.10;99.90;;;;;;5096969;28;20407;-68
2021/07/20 11:29:55;;;;;;;1999.90;999.90;;;22.90;99.90;;;;;;5096799;28;20424;-68
2021/07/20 11:32:30;;;;;;;1999.90;999.90;;;23.30;99.90;;;;;;5096910;28;20453;-69
2021/07/20 11:35:03;;;;;;;1999.90;999.90;;;23.70;99.90;;;;;;5096608;28;20992;-69
2021/07/20 11:37:35;;;;;;;1999.90;999.90;;;23.90;99.90;;;;;;5096556;28;20404;-68
2021/07/20 11:40:07;;;;;;;1999.90;999.90;;;24.20;99.90;;;;;;5096993;28;20749;-69
2021/07/20 11:42:45;;;;;;;1999.90;999.90;;;24.60;99.90;;;;;;5096902;28;20487;-69
2021/07/20 11:45:13;;;;;;;1999.90;999.90;;;24.40;99.90;;;;;;5096201;28;20445;-69
2021/07/20 11:47:56;;;;;;;1999.90;999.90;;;23.70;99.90;;;;;;5096773;28;20458;-68
2021/07/20 11:50:25;;;;;;;1999.90;999.90;;;23.50;99.90;;;;;;5097050;28;20474;-68
2021/07/20 11:52:52;;;;;;;1999.90;999.90;;;23.50;99.90;;;;;;5096380;28;20418;-68
2021/07/20 11:55:56;;;;;;;1999.90;999.90;;;23.90;99.90;;;;;;5096453;28;21022;-69
2021/07/20 11:58:28;;;;;;;1999.90;999.90;;;24.00;99.90;;;;;;5097057;28;20400;-68
2021/07/20 12:01:26;;;;;;;1999.90;999.90;;;24.30;99.90;;;;;;5096533;28;20396;-68
2021/07/20 12:04:16;;;;;;;1999.90;999.90;;;24.80;99.90;;;;;;5096504;28;20379;-69
2021/07/20 12:06:47;;;;;;;1999.90;999.90;;;25.20;99.90;;;;;;5096202;28;20536;-69
2021/07/20 12:09:31;;;;;;;1999.90;999.90;;;25.70;99.90;;;;;;5096823;28;20414;-69
2021/07/20 12:11:58;;;;;;;1999.90;999.90;;;25.70;99.90;;;;;;5096745;28;20411;-69
2021/07/20 12:14:24;;;;;;;1999.90;999.90;;;25.70;99.90;;;;;;5095877;28;20436;-68
2021/07/20 12:16:52;;;;;;;1999.90;999.90;;;26.20;99.90;;;;;;5096527;28;20403;-69
2021/07/20 12:19:38;;;;;;;1999.90;999.90;;;26.80;99.90;;;;;;5096725;28;20370;-69